createdAt,value
2022-12-12T00:00:38.453Z,49.22
2022-12-12T00:03:05.219Z,40.33
2022-12-12T00:05:31.905Z,57.53
2022-12-12T00:07:58.489Z,47.70
2022-12-12T00:10:25.094Z,55.72
2022-12-12T00:12:51.693Z,53.67
2022-12-12T00:15:18.458Z,49.40
2022-12-12T00:17:45.015Z,46.22
2022-12-12T00:20:11.806Z,46.90
2022-12-12T00:22:38.393Z,55.13
2022-12-12T00:25:05.278Z,51.72
2022-12-12T00:27:33.373Z,51.00
2022-12-12T00:30:00.052Z,58.17
2022-12-12T00:32:26.816Z,46.47
2022-12-12T00:34:53.392Z,50.72
2022-12-12T00:37:19.970Z,52.50
2022-12-12T00:39:46.573Z,44.50
2022-12-12T00:42:13.449Z,56.47
2022-12-12T00:44:40.272Z,47.28
2022-12-12T00:47:06.841Z,44.38
2022-12-12T00:49:33.603Z,45.78
2022-12-12T00:52:00.178Z,44.28
2022-12-12T00:54:26.718Z,49.47
2022-12-12T00:56:53.241Z,53.78
2022-12-12T00:59:19.882Z,48.00
2022-12-12T01:01:46.882Z,47.17
2022-12-12T01:04:13.574Z,47.53
2022-12-12T01:06:40.230Z,50.58
2022-12-12T01:09:06.772Z,42.15
2022-12-12T01:11:33.337Z,48.10
2022-12-12T01:13:59.886Z,47.40
2022-12-12T01:16:26.515Z,49.55
2022-12-12T01:18:53.395Z,47.28
2022-12-12T01:21:20.831Z,45.65
2022-12-12T01:23:47.852Z,50.33
2022-12-12T01:26:17.047Z,48.55
2022-12-12T01:28:44.544Z,43.85
2022-12-12T01:31:11.533Z,50.13
2022-12-12T01:33:38.696Z,49.70
2022-12-12T01:36:06.070Z,46.92
2022-12-12T01:38:32.929Z,50.70
2022-12-12T01:40:59.619Z,47.63
2022-12-12T01:43:26.315Z,50.58
2022-12-12T01:45:59.198Z,46.92
2022-12-12T01:48:29.571Z,45.83
2022-12-12T01:50:57.949Z,44.80
2022-12-12T01:55:52.459Z,46.42
2022-12-12T01:58:19.023Z,42.83
2022-12-12T02:00:46.112Z,49.80
2022-12-12T02:03:12.951Z,42.83
2022-12-12T02:05:42.702Z,43.90
2022-12-12T02:08:09.868Z,50.28
2022-12-12T02:10:36.611Z,47.17
2022-12-12T02:13:12.449Z,48.10
2022-12-12T02:16:04.790Z,43.67
2022-12-12T02:18:51.917Z,49.22
2022-12-12T02:21:51.822Z,42.58
2022-12-12T02:24:21.678Z,51.50
2022-12-12T02:27:07.645Z,46.75
2022-12-12T02:29:46.896Z,47.75
2022-12-12T02:32:41.445Z,54.10
2022-12-12T02:35:07.967Z,49.55
2022-12-12T02:37:46.748Z,43.25
2022-12-12T02:40:23.271Z,45.72
2022-12-12T02:43:05.830Z,45.33
2022-12-12T02:45:39.780Z,46.13
2022-12-12T02:48:24.925Z,45.92
2022-12-12T02:50:53.909Z,42.72
2022-12-12T02:53:21.999Z,43.92
2022-12-12T02:55:49.527Z,43.40
2022-12-12T02:58:17.698Z,52.07
2022-12-12T03:00:56.091Z,41.88
2022-12-12T03:03:54.934Z,42.85
2022-12-12T03:07:05.846Z,46.72
2022-12-12T03:09:40.105Z,47.55
2022-12-12T03:12:22.055Z,44.78
2022-12-12T03:14:55.339Z,47.50
2022-12-12T03:17:27.845Z,43.95
2022-12-12T03:20:17.612Z,47.80
2022-12-12T03:22:54.411Z,47.55
2022-12-12T03:25:27.563Z,47.55
2022-12-12T03:28:01.390Z,45.55
2022-12-12T03:30:29.949Z,49.40
2022-12-12T03:33:00.723Z,44.42
2022-12-12T03:35:34.556Z,52.13
2022-12-12T03:38:06.223Z,46.90
2022-12-12T03:41:00.516Z,48.00
2022-12-12T03:43:32.875Z,56.97
2022-12-12T03:46:03.546Z,54.00
2022-12-12T03:48:43.090Z,51.13
2022-12-12T03:51:29.937Z,57.45
2022-12-12T03:54:02.749Z,54.40
2022-12-12T03:56:33.023Z,51.25
2022-12-12T03:59:24.157Z,56.92
2022-12-12T04:01:58.743Z,50.22
2022-12-12T04:04:36.399Z,67.95
2022-12-12T04:07:24.027Z,55.90
2022-12-12T04:10:09.722Z,49.08
2022-12-12T04:13:06.099Z,46.95
2022-12-12T04:15:35.440Z,55.17
2022-12-12T04:18:05.873Z,46.95
2022-12-12T04:21:00.174Z,47.60
2022-12-12T04:23:35.055Z,48.20
2022-12-12T04:26:40.733Z,45.30
2022-12-12T04:29:49.647Z,54.88
2022-12-12T04:32:24.839Z,51.30
2022-12-12T04:34:58.550Z,55.35
2022-12-12T04:37:30.985Z,47.80
2022-12-12T04:40:00.296Z,49.90
2022-12-12T04:42:32.398Z,48.13
2022-12-12T04:45:29.106Z,55.35
2022-12-12T04:47:56.604Z,49.72
2022-12-12T04:50:25.708Z,53.97
2022-12-12T04:52:53.787Z,53.38
2022-12-12T04:55:32.048Z,47.40
2022-12-12T05:00:26.718Z,51.30
2022-12-12T05:03:18.530Z,47.38
2022-12-12T05:05:51.578Z,48.30
2022-12-12T05:08:28.054Z,44.65
2022-12-12T05:10:56.162Z,47.50
2022-12-12T05:13:27.837Z,44.83
2022-12-12T05:15:56.133Z,49.60
2022-12-12T05:20:49.762Z,46.70
2022-12-12T05:23:16.337Z,50.70
2022-12-12T05:25:42.892Z,52.67
2022-12-12T05:28:09.531Z,48.92
2022-12-12T05:30:36.193Z,53.40
2022-12-12T05:33:02.823Z,47.00
2022-12-12T05:35:29.362Z,48.75
2022-12-12T05:37:55.930Z,40.22
2022-12-12T05:40:22.943Z,47.72
2022-12-12T05:42:49.529Z,50.35
2022-12-12T05:45:16.234Z,49.88
2022-12-12T05:47:42.807Z,44.92
2022-12-12T05:50:09.981Z,52.60
2022-12-12T05:52:36.668Z,56.83
2022-12-12T05:55:03.832Z,55.17
2022-12-12T05:57:30.378Z,51.83
2022-12-12T05:59:56.946Z,55.20
2022-12-12T06:02:23.571Z,61.38
2022-12-12T06:04:50.170Z,51.25
2022-12-12T06:07:16.815Z,50.67
2022-12-12T06:09:43.408Z,51.78
2022-12-12T06:12:09.952Z,56.03
2022-12-12T06:14:36.524Z,48.95
2022-12-12T06:17:03.442Z,48.08
2022-12-12T06:19:30.240Z,53.97
2022-12-12T06:21:56.911Z,58.95
2022-12-12T06:24:23.442Z,53.63
2022-12-12T06:26:50.050Z,55.45
2022-12-12T06:29:16.626Z,52.45
2022-12-12T06:31:43.269Z,55.28
2022-12-12T06:34:09.895Z,49.25
2022-12-12T06:36:36.757Z,53.70
2022-12-12T06:39:03.464Z,60.20
2022-12-12T06:41:31.095Z,50.10
2022-12-12T06:43:57.841Z,61.33
2022-12-12T06:46:26.548Z,49.17
2022-12-12T06:48:54.140Z,51.42
2022-12-12T06:51:23.077Z,50.70
2022-12-12T06:53:49.950Z,52.45
2022-12-12T06:56:18.980Z,46.53
2022-12-12T06:58:45.824Z,53.63
2022-12-12T07:01:14.169Z,49.22
2022-12-12T07:06:08.043Z,48.60
2022-12-12T07:08:35.572Z,45.78
2022-12-12T07:11:17.089Z,53.35
2022-12-12T07:13:44.206Z,51.97
2022-12-12T07:16:10.918Z,53.10
2022-12-12T07:18:37.742Z,53.22
2022-12-12T07:21:05.831Z,51.33
2022-12-12T07:23:32.899Z,52.85
2022-12-12T07:25:59.477Z,47.85
2022-12-12T07:28:26.053Z,55.65
2022-12-12T07:30:52.650Z,47.35
2022-12-12T07:33:19.691Z,49.35
2022-12-12T07:35:46.285Z,53.67
2022-12-12T07:38:12.970Z,51.88
2022-12-12T07:40:40.134Z,50.55
2022-12-12T07:43:06.802Z,55.47
2022-12-12T07:45:33.510Z,52.13
2022-12-12T07:48:00.045Z,56.58
2022-12-12T07:50:26.603Z,53.17
2022-12-12T07:52:53.149Z,48.90
2022-12-12T07:55:19.714Z,49.10
2022-12-12T07:57:46.302Z,55.67
2022-12-12T08:00:13.658Z,47.70
2022-12-12T08:02:40.353Z,54.65
2022-12-12T08:05:07.786Z,49.17
2022-12-12T08:07:34.351Z,46.20
2022-12-12T08:10:00.918Z,51.05
2022-12-12T08:12:31.428Z,55.70
2022-12-12T08:14:58.022Z,47.17
2022-12-12T08:17:24.845Z,47.22
2022-12-12T08:19:51.586Z,51.10
2022-12-12T08:22:18.430Z,50.78
2022-12-12T08:24:44.986Z,47.80
2022-12-12T08:27:15.610Z,52.03
2022-12-12T08:29:43.084Z,47.33
2022-12-12T08:32:09.658Z,50.45
2022-12-12T08:34:36.234Z,53.53
2022-12-12T08:37:02.805Z,53.85
2022-12-12T08:39:29.367Z,48.92
2022-12-12T08:41:55.945Z,50.97
2022-12-12T08:44:22.634Z,42.38
2022-12-12T08:46:49.323Z,47.70
2022-12-12T08:49:16.264Z,46.40
2022-12-12T08:51:43.243Z,45.00
2022-12-12T08:54:12.252Z,43.72
2022-12-12T08:56:39.305Z,44.88
2022-12-12T08:59:06.274Z,45.13
2022-12-12T09:01:32.985Z,42.50
2022-12-12T09:03:59.737Z,37.72
2022-12-12T09:06:26.686Z,42.42
2022-12-12T09:08:53.735Z,48.28
2022-12-12T09:11:20.274Z,41.22
2022-12-12T09:13:47.093Z,42.00
2022-12-12T09:16:17.444Z,44.40
2022-12-12T09:18:48.461Z,44.80
2022-12-12T09:21:15.884Z,45.63
2022-12-12T09:23:42.478Z,42.15
2022-12-12T09:26:09.786Z,41.78
2022-12-12T09:28:36.840Z,43.40
2022-12-12T09:31:07.976Z,41.60
2022-12-12T09:33:35.570Z,45.85
2022-12-12T09:36:04.123Z,46.10
2022-12-12T09:38:31.658Z,42.10
2022-12-12T09:40:59.106Z,44.42
2022-12-12T09:43:59.807Z,44.30
2022-12-12T09:46:47.926Z,42.00
2022-12-12T09:51:56.220Z,44.55
2022-12-12T09:54:25.149Z,41.33
2022-12-12T09:57:03.883Z,35.75
2022-12-12T09:59:35.220Z,37.85
2022-12-12T10:02:16.675Z,39.25
2022-12-12T10:04:58.931Z,36.33
2022-12-12T10:07:37.689Z,41.65
2022-12-12T10:10:11.562Z,37.10
2022-12-12T10:12:38.677Z,44.85
2022-12-12T10:15:08.216Z,47.00
2022-12-12T10:17:38.844Z,38.30
2022-12-12T10:20:13.169Z,39.63
2022-12-12T10:22:51.217Z,39.28
2022-12-12T10:25:41.363Z,44.47
2022-12-12T10:28:13.272Z,39.05
2022-12-12T10:30:51.877Z,41.35
2022-12-12T10:33:52.155Z,43.78
2022-12-12T10:36:38.679Z,38.25
2022-12-12T10:39:39.233Z,37.53
2022-12-12T10:42:12.605Z,40.78
2022-12-12T10:44:51.377Z,38.28
2022-12-12T10:47:18.202Z,36.25
2022-12-12T10:49:44.820Z,37.60
2022-12-12T10:52:22.140Z,39.00
2022-12-12T10:54:52.410Z,31.00
2022-12-12T10:57:27.877Z,36.85
2022-12-12T10:59:58.661Z,37.03
2022-12-12T11:02:27.888Z,31.52
2022-12-12T11:05:10.362Z,36.30
2022-12-12T11:07:43.054Z,36.20
2022-12-12T11:10:34.650Z,35.13
2022-12-12T11:13:09.225Z,37.78
2022-12-12T11:15:40.037Z,33.60
2022-12-12T11:18:14.092Z,34.50
2022-12-12T11:20:56.530Z,51.97
2022-12-12T11:23:25.350Z,34.10
2022-12-12T11:25:57.456Z,35.25
2022-12-12T11:28:27.138Z,31.13
2022-12-12T11:30:55.791Z,37.90
2022-12-12T11:33:31.356Z,34.72
2022-12-12T11:35:58.627Z,33.50
2022-12-12T11:38:29.143Z,32.38
2022-12-12T11:40:59.798Z,35.33
2022-12-12T11:43:38.548Z,33.10
2022-12-12T11:46:10.798Z,34.45
2022-12-12T11:48:39.639Z,32.45
2022-12-12T11:51:06.843Z,34.17
2022-12-12T11:53:44.994Z,33.80
2022-12-12T11:56:37.494Z,32.70
2022-12-12T11:59:28.942Z,32.50
2022-12-12T12:02:14.126Z,26.60
2022-12-12T12:05:15.034Z,34.50
2022-12-12T12:07:54.572Z,33.97
2022-12-12T12:10:30.201Z,37.28
2022-12-12T12:13:08.034Z,28.38
2022-12-12T12:15:48.943Z,37.78
2022-12-12T12:18:30.438Z,29.45
2022-12-12T12:21:03.113Z,29.90
2022-12-12T12:23:29.639Z,33.67
2022-12-12T12:26:01.983Z,30.48
2022-12-12T12:28:50.224Z,35.55
2022-12-12T12:34:01.309Z,35.60
2022-12-12T12:36:29.881Z,30.73
2022-12-12T12:39:13.155Z,30.45
2022-12-12T12:41:44.764Z,34.85
2022-12-12T12:44:37.879Z,33.65
2022-12-12T12:47:07.291Z,33.03
2022-12-12T12:49:43.975Z,30.15
2022-12-12T12:52:17.987Z,35.45
2022-12-12T12:54:48.214Z,38.28
2022-12-12T12:57:37.572Z,30.60
2022-12-12T13:00:09.999Z,31.85
2022-12-12T13:03:10.851Z,33.10
2022-12-12T13:05:57.130Z,36.00
2022-12-12T13:08:29.668Z,31.48
2022-12-12T13:11:03.531Z,30.92
2022-12-12T13:13:32.504Z,37.63
2022-12-12T13:16:01.823Z,34.17
2022-12-12T13:18:44.612Z,34.63
2022-12-12T13:21:20.839Z,35.20
2022-12-12T13:23:59.584Z,27.15
2022-12-12T13:26:41.655Z,35.25
2022-12-12T13:29:43.751Z,33.42
2022-12-12T13:32:19.506Z,33.00
2022-12-12T13:34:50.831Z,37.05
2022-12-12T13:37:19.429Z,32.30
2022-12-12T13:39:46.631Z,31.52
2022-12-12T13:42:15.292Z,33.15
2022-12-12T13:44:46.652Z,37.63
2022-12-12T13:47:35.655Z,33.38
2022-12-12T13:50:11.443Z,30.83
2022-12-12T13:52:42.722Z,34.80
2022-12-12T13:55:16.010Z,35.95
2022-12-12T13:57:57.859Z,36.85
2022-12-12T14:00:25.939Z,33.03
2022-12-12T14:03:10.972Z,42.97
2022-12-12T14:05:41.209Z,32.42
2022-12-12T14:08:19.432Z,41.33
2022-12-12T14:10:45.979Z,37.38
2022-12-12T14:13:16.595Z,34.08
2022-12-12T14:15:44.488Z,32.80
2022-12-12T14:18:20.950Z,33.20
2022-12-12T14:21:02.427Z,35.38
2022-12-12T14:23:34.696Z,37.38
2022-12-12T14:26:01.548Z,32.72
2022-12-12T14:28:32.569Z,34.53
2022-12-12T14:31:10.234Z,33.60
2022-12-12T14:34:24.314Z,37.30
2022-12-12T14:37:09.854Z,35.17
2022-12-12T14:39:36.334Z,35.50
2022-12-12T14:42:05.958Z,39.15
2022-12-12T14:44:34.977Z,34.25
2022-12-12T14:47:08.925Z,36.10
2022-12-12T14:49:35.745Z,34.08
2022-12-12T14:52:02.522Z,36.05
2022-12-12T14:54:30.899Z,36.63
2022-12-12T14:59:39.891Z,40.10
2022-12-12T15:02:26.628Z,33.78
2022-12-12T15:05:04.142Z,34.38
2022-12-12T15:07:38.489Z,34.28
2022-12-12T15:10:27.433Z,39.95
2022-12-12T15:12:54.143Z,41.80
2022-12-12T15:15:28.138Z,37.95
2022-12-12T15:17:56.115Z,37.55
2022-12-12T15:20:27.417Z,37.35
2022-12-12T15:23:00.955Z,35.03
2022-12-12T15:25:30.424Z,35.13
2022-12-12T15:27:57.866Z,35.25
2022-12-12T15:30:30.515Z,31.43
2022-12-12T15:32:58.087Z,31.75
2022-12-12T15:35:24.672Z,42.90
2022-12-12T15:38:00.555Z,36.08
2022-12-12T15:40:34.871Z,36.38
2022-12-12T15:43:04.641Z,38.53
2022-12-12T15:45:37.489Z,37.65
2022-12-12T15:48:05.815Z,35.83
2022-12-12T15:50:44.386Z,31.15
2022-12-12T15:53:19.919Z,38.20
2022-12-12T15:56:06.729Z,34.40
2022-12-12T15:58:56.271Z,34.97
2022-12-12T16:01:29.981Z,35.03
2022-12-12T16:04:09.227Z,36.28
2022-12-12T16:06:43.992Z,38.88
2022-12-12T16:09:10.534Z,34.55
2022-12-12T16:11:37.111Z,33.10
2022-12-12T16:14:05.235Z,30.50
2022-12-12T16:16:43.955Z,32.85
2022-12-12T16:19:44.736Z,32.35
2022-12-12T16:22:32.518Z,35.50
2022-12-12T16:25:26.486Z,38.15
2022-12-12T16:28:10.032Z,34.65
2022-12-12T16:30:38.829Z,37.20
2022-12-12T16:33:30.192Z,38.72
2022-12-12T16:35:59.184Z,35.70
2022-12-12T16:38:25.906Z,36.92
2022-12-12T16:40:54.486Z,41.97
2022-12-12T16:43:22.795Z,36.40
2022-12-12T16:45:51.284Z,34.03
2022-12-12T16:48:19.014Z,30.63
2022-12-12T16:50:46.584Z,29.63
2022-12-12T16:53:13.238Z,35.90
2022-12-12T16:55:42.650Z,40.00
2022-12-12T16:58:09.259Z,39.72
2022-12-12T17:00:36.360Z,35.50
2022-12-12T17:03:02.955Z,39.97
2022-12-12T17:05:29.646Z,38.90
2022-12-12T17:07:56.361Z,33.75
2022-12-12T17:10:24.905Z,42.33
2022-12-12T17:15:24.215Z,37.47
2022-12-12T17:17:50.872Z,41.30
2022-12-12T17:20:17.828Z,33.22
2022-12-12T17:22:45.047Z,36.63
2022-12-12T17:25:12.051Z,40.08
2022-12-12T17:27:38.691Z,38.65
2022-12-12T17:30:07.243Z,43.35
2022-12-12T17:32:34.891Z,37.38
2022-12-12T17:35:02.342Z,40.15
2022-12-12T17:37:29.062Z,33.43
2022-12-12T17:39:55.678Z,38.75
2022-12-12T17:42:22.718Z,39.78
2022-12-12T17:44:49.499Z,38.78
2022-12-12T17:47:16.980Z,36.05
2022-12-12T17:49:43.613Z,38.33
2022-12-12T17:52:10.177Z,39.38
2022-12-12T17:54:36.776Z,36.42
2022-12-12T17:57:03.358Z,42.60
2022-12-12T17:59:29.904Z,44.90
2022-12-12T18:01:56.602Z,41.85
2022-12-12T18:04:28.045Z,37.38
2022-12-12T18:06:55.206Z,37.65
2022-12-12T18:09:21.786Z,40.47
2022-12-12T18:11:48.354Z,39.83
2022-12-12T18:14:16.007Z,39.53
2022-12-12T18:16:44.283Z,44.78
2022-12-12T18:24:25.926Z,41.80
2022-12-12T18:29:19.688Z,41.58
2022-12-12T18:31:46.284Z,39.72
2022-12-12T18:34:12.869Z,48.22
2022-12-12T18:36:39.713Z,39.10
2022-12-12T18:39:07.046Z,43.05
2022-12-12T18:41:36.688Z,36.10
2022-12-12T18:44:06.136Z,39.70
2022-12-12T18:46:37.178Z,43.97
2022-12-12T18:49:07.062Z,49.75
2022-12-12T18:51:33.726Z,42.97
2022-12-12T18:54:02.318Z,40.65
2022-12-12T18:56:30.994Z,41.33
2022-12-12T18:58:58.939Z,40.65
2022-12-12T19:01:32.492Z,38.83
2022-12-12T19:04:04.535Z,40.90
2022-12-12T19:06:36.654Z,47.47
2022-12-12T19:09:23.196Z,44.83
2022-12-12T19:11:50.435Z,38.30
2022-12-12T19:14:17.109Z,43.42
2022-12-12T19:16:44.311Z,39.80
2022-12-12T19:19:12.118Z,44.28
2022-12-12T19:21:38.789Z,41.83
2022-12-12T19:24:09.195Z,42.63
2022-12-12T19:26:35.981Z,42.15
2022-12-12T19:29:06.019Z,40.65
2022-12-12T19:31:34.473Z,46.10
2022-12-12T19:34:01.918Z,42.45
2022-12-12T19:36:29.948Z,44.60
2022-12-12T19:38:58.773Z,50.15
2022-12-12T19:41:26.145Z,42.15
2022-12-12T19:43:53.816Z,50.37
2022-12-12T19:46:22.743Z,45.83
2022-12-12T19:48:53.962Z,50.92
2022-12-12T19:51:21.713Z,41.25
2022-12-12T19:53:57.501Z,50.17
2022-12-12T19:56:26.901Z,39.22
2022-12-12T19:58:53.702Z,45.00
2022-12-12T20:01:22.595Z,43.88
2022-12-12T20:03:54.987Z,44.55
2022-12-12T20:06:22.389Z,44.55
2022-12-12T20:08:49.427Z,42.23
2022-12-12T20:11:18.364Z,43.38
2022-12-12T20:14:03.324Z,43.53
2022-12-12T20:16:30.417Z,43.10
2022-12-12T20:18:57.625Z,43.40
2022-12-12T20:21:59.059Z,47.08
2022-12-12T20:24:14.079Z,45.90
2022-12-12T20:26:41.562Z,44.17
2022-12-12T20:29:09.253Z,44.15
2022-12-12T20:31:38.169Z,42.28
2022-12-12T20:34:04.803Z,47.08
2022-12-12T20:36:34.213Z,42.58
2022-12-12T20:39:04.776Z,43.75
2022-12-12T20:41:34.256Z,41.17
2022-12-12T20:44:01.190Z,46.67
2022-12-12T20:46:32.742Z,39.70
2022-12-12T20:49:00.461Z,42.35
2022-12-12T20:51:59.031Z,43.97
2022-12-12T20:54:19.943Z,45.08
2022-12-12T20:56:46.784Z,42.97
2022-12-12T20:59:14.432Z,45.55
2022-12-12T21:01:41.454Z,47.10
2022-12-12T21:04:09.465Z,42.85
2022-12-12T21:06:43.178Z,39.42
2022-12-12T21:09:11.175Z,48.97
2022-12-12T21:11:39.044Z,40.33
2022-12-12T21:14:06.855Z,46.17
2022-12-12T21:16:37.032Z,38.45
2022-12-12T21:19:06.591Z,43.05
2022-12-12T21:21:33.404Z,49.50
2022-12-12T21:24:00.150Z,44.13
2022-12-12T21:26:29.388Z,46.35
2022-12-12T21:28:56.841Z,39.15
2022-12-12T21:31:29.329Z,40.03
2022-12-12T21:33:56.703Z,44.55
2022-12-12T21:36:24.299Z,50.97
2022-12-12T21:38:52.222Z,46.67
2022-12-12T21:41:20.278Z,45.88
2022-12-12T21:43:47.207Z,41.40
2022-12-12T21:46:19.825Z,40.72
2022-12-12T21:48:46.920Z,40.83
2022-12-12T21:51:15.619Z,40.22
2022-12-12T21:53:42.934Z,38.55
2022-12-12T21:56:12.683Z,45.47
2022-12-12T21:58:41.017Z,46.53
2022-12-12T22:03:38.000Z,39.08
2022-12-12T22:06:11.079Z,47.40
2022-12-12T22:08:38.155Z,44.03
2022-12-12T22:11:05.213Z,44.13
2022-12-12T22:13:36.595Z,47.20
2022-12-12T22:16:10.586Z,44.05
2022-12-12T22:18:37.260Z,41.40
2022-12-12T22:21:04.643Z,42.80
2022-12-12T22:23:31.287Z,43.73
2022-12-12T22:25:57.907Z,40.47
2022-12-12T22:28:24.542Z,40.78
2022-12-12T22:30:51.113Z,38.45
2022-12-12T22:33:17.658Z,45.08
2022-12-12T22:35:44.218Z,48.70
2022-12-12T22:38:10.770Z,43.75
2022-12-12T22:40:37.315Z,43.45
2022-12-12T22:43:03.898Z,39.58
2022-12-12T22:45:30.470Z,49.10
2022-12-12T22:47:56.994Z,40.70
2022-12-12T22:50:23.636Z,47.05
2022-12-12T22:52:50.179Z,44.50
2022-12-12T22:55:16.934Z,42.92
2022-12-12T22:57:46.529Z,44.95
2022-12-12T23:00:13.638Z,46.28
2022-12-12T23:02:40.230Z,41.65
2022-12-12T23:05:07.079Z,43.60
2022-12-12T23:07:33.841Z,42.20
2022-12-12T23:10:02.350Z,41.60
2022-12-12T23:12:29.171Z,41.85
2022-12-12T23:14:55.707Z,44.33
2022-12-12T23:17:22.303Z,45.35
2022-12-12T23:19:48.851Z,45.20
2022-12-12T23:22:15.468Z,47.40
2022-12-12T23:24:42.080Z,39.85
2022-12-12T23:27:08.629Z,45.65
2022-12-12T23:29:35.191Z,42.05
2022-12-12T23:32:03.116Z,42.55
2022-12-12T23:34:30.102Z,45.97
2022-12-12T23:36:57.062Z,45.95
2022-12-12T23:39:25.320Z,43.55
2022-12-12T23:44:20.966Z,40.55
2022-12-12T23:46:47.847Z,43.13
2022-12-12T23:49:25.453Z,41.22
2022-12-12T23:51:54.785Z,42.47
2022-12-12T23:54:34.924Z,47.55
2022-12-12T23:57:02.369Z,41.22
2022-12-12T23:59:29.400Z,44.08
